Time;durP1;ratioP1;P1;durP2;ratioP2;P2;SDS_P1;SDS_P2;PMS_P1;PMS_P2;Temp;Humidity;BMP_temperature;BMP_pressure;BME280_temperature;BME280_humidity;BME280_pressure;Samples;Min_cycle;Max_cycle;Signal;HPM_P1;HPM_P2
2022/03/15 00:01:05;;;;;;;12.88;6.07;;;8.30;99.90;;;;;;10448832;28;84769;-50
2022/03/15 00:06:06;;;;;;;11.60;5.65;;;8.20;99.90;;;;;;10463570;27;87032;-48
2022/03/15 00:11:07;;;;;;;11.23;4.97;;;8.30;99.90;;;;;;10415826;28;84859;-48
2022/03/15 00:16:10;;;;;;;11.77;5.68;;;8.30;99.90;;;;;;10403752;28;86091;-49
2022/03/15 00:21:12;;;;;;;13.75;5.78;;;8.30;99.90;;;;;;10405174;28;84906;-47
2022/03/15 00:26:12;;;;;;;10.65;5.18;;;8.20;99.90;;;;;;10445913;28;84407;-47
2022/03/15 00:31:13;;;;;;;11.40;4.93;;;8.20;99.90;;;;;;10447700;28;84702;-47
2022/03/15 00:36:14;;;;;;;17.52;5.55;;;8.30;99.90;;;;;;10441690;28;86224;-48
2022/03/15 00:41:14;;;;;;;12.43;5.93;;;8.20;99.90;;;;;;10447247;27;84956;-48
2022/03/15 00:46:17;;;;;;;10.60;5.80;;;8.10;99.90;;;;;;10450862;27;84820;-49
2022/03/15 00:51:18;;;;;;;12.32;5.28;;;8.00;99.90;;;;;;10426495;28;84150;-50
2022/03/15 00:56:19;;;;;;;8.73;5.07;;;8.00;99.90;;;;;;10410946;28;84171;-49
2022/03/15 01:01:20;;;;;;;10.80;5.32;;;8.00;99.90;;;;;;10409853;28;86987;-48
2022/03/15 01:06:20;;;;;;;11.75;5.85;;;7.90;99.90;;;;;;10446440;27;84788;-46
2022/03/15 01:11:21;;;;;;;9.25;5.47;;;7.90;99.90;;;;;;10453126;28;84970;-52
2022/03/15 01:16:22;;;;;;;11.23;5.88;;;7.90;99.90;;;;;;10449384;27;84058;-47
2022/03/15 01:21:25;;;;;;;9.25;5.25;;;7.70;99.90;;;;;;10411166;28;84292;-47
2022/03/15 01:26:26;;;;;;;14.18;5.97;;;7.60;99.90;;;;;;10409493;28;84257;-46
2022/03/15 01:31:28;;;;;;;9.63;5.10;;;7.60;99.90;;;;;;10422754;28;84164;-50
2022/03/15 01:36:30;;;;;;;11.38;5.18;;;7.70;99.90;;;;;;10466947;27;86992;-46
2022/03/15 01:41:35;;;;;;;11.57;5.25;;;7.70;99.90;;;;;;10467424;27;87146;-50
2022/03/15 01:46:35;;;;;;;;;;;7.70;99.90;;;;;;10427595;28;86997;-49
2022/03/15 01:51:38;;;;;;;;;;;7.80;99.90;;;;;;10408647;28;85064;-48
2022/03/15 01:56:40;;;;;;;15.30;5.70;;;7.70;99.90;;;;;;10408115;28;84883;-46
2022/03/15 02:01:42;;;;;;;;;;;7.50;99.90;;;;;;10437921;28;86574;-47
2022/03/15 02:06:42;;;;;;;;;;;7.40;99.90;;;;;;10451061;27;84938;-47
2022/03/15 02:11:45;;;;;;;;;;;7.30;99.90;;;;;;10451766;28;84966;-46
2022/03/15 02:16:45;;;;;;;;;;;7.20;99.90;;;;;;10411630;27;84856;-47
2022/03/15 02:21:46;;;;;;;;;;;7.20;99.90;;;;;;10409482;28;84045;-47
2022/03/15 02:26:47;;;;;;;;;;;7.30;99.90;;;;;;10413947;28;84893;-50
2022/03/15 02:31:48;;;;;;;;;;;7.30;99.90;;;;;;10450921;28;84690;-50
2022/03/15 02:36:48;;;;;;;;;;;7.30;99.90;;;;;;10447846;28;84896;-46
2022/03/15 02:41:49;;;;;;;;;;;7.30;99.90;;;;;;10450739;28;84745;-48
2022/03/15 02:46:49;;;;;;;;;;;7.30;99.90;;;;;;10450107;28;84554;-50
2022/03/15 02:51:50;;;;;;;;;;;7.30;99.90;;;;;;10419067;27;84759;-50
2022/03/15 02:56:50;;;;;;;;;;;7.30;99.90;;;;;;10407141;28;84894;-48
2022/03/15 03:01:51;;;;;;;;;;;7.20;99.90;;;;;;10408441;28;84704;-45
2022/03/15 03:06:54;;;;;;;;;;;6.90;99.90;;;;;;10409262;28;85785;-48
2022/03/15 03:11:55;;;;;;;;;;;6.70;99.90;;;;;;10408026;28;84733;-47
2022/03/15 03:16:55;;;;;;;;;;;6.60;99.90;;;;;;10407080;28;84929;-49
2022/03/15 03:21:56;;;;;;;;;;;6.50;99.90;;;;;;10420519;28;84827;-45
2022/03/15 03:26:58;;;;;;;;;;;6.60;99.90;;;;;;10448653;28;84044;-46
2022/03/15 03:31:59;;;;;;;;;;;6.70;99.90;;;;;;10449756;27;84146;-46
2022/03/15 03:36:59;;;;;;;;;;;6.80;99.90;;;;;;10463635;27;84125;-47
2022/03/15 03:42:00;;;;;;;;;;;6.80;99.90;;;;;;10406955;28;84264;-41
2022/03/15 03:47:02;;;;;;;;;;;6.80;99.90;;;;;;10405575;28;84930;-48
2022/03/15 03:52:03;;;;;;;;;;;6.90;99.90;;;;;;10406820;27;84935;-47
2022/03/15 03:57:04;;;;;;;;;;;6.80;99.90;;;;;;10480449;27;84202;-45
2022/03/15 04:02:04;;;;;;;;;;;6.80;99.90;;;;;;10490599;27;84928;-45
2022/03/15 04:07:07;;;;;;;;;;;6.80;99.90;;;;;;10488399;27;84202;-47
2022/03/15 04:12:08;;;;;;;;;;;6.90;99.90;;;;;;10454759;27;85014;-46
2022/03/15 04:17:08;;;;;;;;;;;6.80;99.90;;;;;;10446795;28;84408;-46
2022/03/15 04:22:09;;;;;;;;;;;6.70;99.90;;;;;;10456505;27;84199;-49
2022/03/15 04:27:09;;;;;;;;;;;6.70;99.90;;;;;;10487766;27;84933;-47
2022/03/15 04:32:10;;;;;;;;;;;6.70;99.90;;;;;;10413448;28;84092;-45
2022/03/15 04:37:10;;;;;;;;;;;6.80;99.90;;;;;;10413245;28;84078;-47
2022/03/15 04:42:11;;;;;;;;;;;6.70;99.90;;;;;;10413173;28;84185;-48
2022/03/15 04:47:12;;;;;;;;;;;6.80;99.90;;;;;;10412124;28;84272;-47
2022/03/15 04:52:13;;;;;;;;;;;6.90;99.90;;;;;;10445062;28;84947;-49
2022/03/15 04:57:14;;;;;;;;;;;6.80;99.90;;;;;;10451272;27;86840;-47
2022/03/15 05:02:14;;;;;;;;;;;6.70;99.90;;;;;;10453873;27;84865;-46
2022/03/15 05:07:15;;;;;;;;;;;6.60;99.90;;;;;;10428718;28;84180;-46
2022/03/15 05:12:18;;;;;;;;;;;6.50;99.90;;;;;;10413013;28;84326;-47
2022/03/15 05:17:24;;;;;;;;;;;6.40;99.90;;;;;;10411196;28;84945;-47
2022/03/15 05:22:24;;;;;;;;;;;6.30;99.90;;;;;;10424698;28;84072;-48
2022/03/15 05:27:25;;;;;;;;;;;6.30;99.90;;;;;;10451937;28;85336;-46
2022/03/15 05:32:26;;;;;;;11.18;6.30;;;6.50;99.90;;;;;;10451479;27;85122;-48
2022/03/15 05:37:27;;;;;;;14.52;6.40;;;6.60;99.90;;;;;;10449898;28;84876;-50
2022/03/15 05:42:28;;;;;;;14.30;6.05;;;6.70;99.90;;;;;;10433477;28;85955;-46
2022/03/15 05:47:28;;;;;;;13.40;5.20;;;6.70;99.90;;;;;;10450928;28;84814;-48
2022/03/15 05:52:29;;;;;;;14.02;5.88;;;6.70;99.90;;;;;;10451267;28;84042;-48
2022/03/15 05:57:30;;;;;;;14.98;6.57;;;6.70;99.90;;;;;;10448480;28;85644;-52
2022/03/15 06:02:30;;;;;;;12.45;6.22;;;6.60;99.90;;;;;;10451317;27;84861;-48
2022/03/15 06:07:31;;;;;;;11.82;5.45;;;6.70;99.90;;;;;;10464971;27;92804;-48
2022/03/15 06:12:32;;;;;;;12.02;6.00;;;6.80;99.90;;;;;;10431578;28;86196;-48
2022/03/15 06:17:41;;;;;;;15.70;6.43;;;6.70;99.90;;;;;;10407951;28;86011;-46
2022/03/15 06:22:43;;;;;;;13.70;6.45;;;6.60;99.90;;;;;;10409955;28;84962;-50
2022/03/15 06:27:44;;;;;;;15.93;5.85;;;6.40;99.90;;;;;;10414821;28;84918;-51
2022/03/15 06:32:45;;;;;;;10.23;5.03;;;6.30;99.90;;;;;;10450439;27;84832;-47
2022/03/15 06:37:47;;;;;;;13.77;6.35;;;6.30;99.90;;;;;;10447837;28;84236;-47
2022/03/15 06:42:48;;;;;;;15.65;6.38;;;6.40;99.90;;;;;;10450876;27;84894;-52
2022/03/15 06:47:49;;;;;;;11.10;5.68;;;6.60;99.90;;;;;;10450634;28;84357;-51
2022/03/15 06:52:50;;;;;;;19.88;6.10;;;6.80;99.90;;;;;;10415071;28;84168;-48
2022/03/15 06:57:51;;;;;;;10.88;5.38;;;7.00;99.90;;;;;;10407885;28;85308;-45
2022/03/15 07:02:53;;;;;;;13.15;5.90;;;7.00;99.90;;;;;;10407755;28;84099;-47
2022/03/15 07:07:53;;;;;;;14.77;5.68;;;7.00;99.90;;;;;;10408670;28;84747;-50
2022/03/15 07:12:54;;;;;;;15.43;5.97;;;7.10;99.90;;;;;;10408795;28;84228;-49
2022/03/15 07:17:56;;;;;;;12.55;5.95;;;7.00;99.90;;;;;;10407546;28;84001;-48
2022/03/15 07:22:56;;;;;;;13.05;5.60;;;6.90;99.90;;;;;;10418480;28;84858;-50
2022/03/15 07:27:57;;;;;;;11.68;5.32;;;7.00;99.90;;;;;;10435864;28;84002;-46
2022/03/15 07:32:59;;;;;;;11.05;5.68;;;7.10;99.90;;;;;;10408321;28;84269;-51
2022/03/15 07:38:02;;;;;;;12.60;5.82;;;7.00;99.90;;;;;;10407169;28;85023;-47
2022/03/15 07:43:03;;;;;;;12.10;6.43;;;7.00;99.90;;;;;;10427687;28;84873;-48
2022/03/15 07:48:05;;;;;;;10.93;5.40;;;7.00;99.90;;;;;;10415874;28;84763;-51
2022/03/15 07:53:06;;;;;;;12.95;6.25;;;7.10;99.90;;;;;;10405992;28;84189;-49
2022/03/15 07:58:06;;;;;;;10.73;5.55;;;7.20;99.90;;;;;;10406355;28;84221;-49
2022/03/15 08:03:07;;;;;;;11.70;5.90;;;7.40;99.90;;;;;;10447385;28;84951;-49
2022/03/15 08:08:08;;;;;;;8.85;4.75;;;7.40;96.60;;;;;;10448178;28;84792;-47
2022/03/15 08:13:09;;;;;;;13.43;6.03;;;7.30;99.90;;;;;;10447556;28;85128;-49
2022/03/15 08:18:09;;;;;;;10.00;5.32;;;7.30;99.90;;;;;;10461155;27;85453;-49
2022/03/15 08:23:10;;;;;;;12.60;6.00;;;7.30;99.90;;;;;;10438378;28;85055;-49
2022/03/15 08:28:10;;;;;;;13.77;5.47;;;7.30;99.90;;;;;;10405594;28;84873;-50
2022/03/15 08:33:11;;;;;;;10.60;5.65;;;7.50;99.90;;;;;;10404739;28;85720;-50
2022/03/15 08:38:12;;;;;;;10.35;5.57;;;7.60;99.90;;;;;;10434628;28;85137;-48
2022/03/15 08:43:13;;;;;;;9.80;5.60;;;7.80;99.90;;;;;;10448056;28;84894;-52
2022/03/15 08:48:13;;;;;;;9.07;4.97;;;7.90;20.70;;;;;;10447986;28;84550;-49
2022/03/15 08:53:14;;;;;;;14.38;5.32;;;8.10;18.20;;;;;;10414391;28;84197;-47
2022/03/15 08:58:15;;;;;;;11.43;6.03;;;8.30;1.00;;;;;;10405052;28;84896;-48
2022/03/15 09:03:17;;;;;;;13.50;4.68;;;8.50;1.00;;;;;;10405932;28;85062;-48
2022/03/15 09:08:18;;;;;;;12.32;4.78;;;8.60;1.00;;;;;;10449796;27;84947;-49
2022/03/15 09:13:19;;;;;;;12.32;5.65;;;8.70;1.00;;;;;;10422121;28;84943;-47
2022/03/15 09:18:20;;;;;;;12.05;5.57;;;8.70;1.00;;;;;;10412054;28;84801;-49
2022/03/15 09:23:22;;;;;;;14.80;5.57;;;8.80;1.00;;;;;;10412179;28;85076;-47
2022/03/15 09:28:22;;;;;;;11.88;5.25;;;8.90;1.00;;;;;;10414074;28;84175;-47
2022/03/15 09:33:26;;;;;;;7.82;4.75;;;9.10;1.00;;;;;;10412131;28;84922;-52
2022/03/15 09:38:26;;;;;;;9.55;4.70;;;9.30;1.00;;;;;;10415528;28;84817;-47
2022/03/15 09:43:28;;;;;;;10.88;4.70;;;9.30;1.00;;;;;;10452406;27;87186;-48
2022/03/15 09:48:29;;;;;;;10.90;4.85;;;9.30;1.00;;;;;;10452247;27;85196;-50
2022/03/15 09:53:31;;;;;;;12.32;4.65;;;9.40;1.00;;;;;;10435257;28;84265;-48
2022/03/15 09:58:32;;;;;;;8.73;4.93;;;9.70;1.00;;;;;;10445003;22;84912;-47
2022/03/15 10:03:32;;;;;;;9.02;5.35;;;9.90;1.00;;;;;;10493378;27;84327;-45
2022/03/15 10:08:34;;;;;;;10.05;4.78;;;10.10;1.00;;;;;;10494124;27;84645;-46
2022/03/15 10:13:35;;;;;;;11.60;5.03;;;10.30;1.00;;;;;;10472279;27;84189;-46
2022/03/15 10:18:36;;;;;;;7.35;4.10;;;10.40;1.00;;;;;;10494880;27;84914;-45
2022/03/15 10:23:37;;;;;;;8.88;4.63;;;10.70;1.00;;;;;;10496059;27;85074;-47
2022/03/15 10:28:39;;;;;;;15.02;5.43;;;10.80;1.00;;;;;;10476883;27;84786;-43
2022/03/15 10:33:41;;;;;;;8.95;5.32;;;10.90;1.00;;;;;;10453115;27;85033;-47
2022/03/15 10:38:48;;;;;;;10.63;5.43;;;11.10;1.00;;;;;;10453223;27;85351;-49
2022/03/15 10:43:54;;;;;;;7.60;4.55;;;11.20;1.00;;;;;;10451780;28;84432;-47
2022/03/15 10:49:02;;;;;;;10.70;4.57;;;11.30;1.00;;;;;;10451680;27;84173;-45
2022/03/15 10:54:06;;;;;;;7.88;4.15;;;11.50;1.00;;;;;;10494888;27;84477;-45
2022/03/15 10:59:09;;;;;;;10.93;4.97;;;11.50;1.00;;;;;;10477554;27;84316;-46
2022/03/15 11:04:11;;;;;;;10.50;5.20;;;11.60;1.00;;;;;;10486567;27;84880;-46
2022/03/15 11:09:15;;;;;;;11.50;5.30;;;11.70;1.00;;;;;;10424676;27;85650;-48
2022/03/15 11:14:39;;;;;;;9.80;5.10;;;11.70;1.00;;;;;;10494928;27;84293;-45
2022/03/15 11:19:50;;;;;;;8.55;5.07;;;12.00;1.00;;;;;;10494334;27;84082;-45
2022/03/15 11:25:10;;;;;;;7.53;4.07;;;12.00;1.00;;;;;;10474144;27;84013;-45
2022/03/15 11:30:14;;;;;;;10.93;4.82;;;12.20;1.00;;;;;;10449445;27;86482;-45
2022/03/15 11:35:19;;;;;;;10.77;4.75;;;12.40;1.00;;;;;;10451870;27;84814;-45
2022/03/15 11:40:20;;;;;;;7.45;4.78;;;12.50;1.00;;;;;;10451720;27;84696;-46
2022/03/15 11:45:29;;;;;;;10.60;4.57;;;12.40;1.00;;;;;;10450852;27;84014;-45
2022/03/15 11:50:49;;;;;;;11.90;4.57;;;12.30;1.00;;;;;;10482259;27;84903;-47
2022/03/15 11:56:02;;;;;;;9.38;4.13;;;12.60;1.00;;;;;;10492269;27;85105;-45
2022/03/15 12:01:09;;;;;;;9.82;4.43;;;12.60;1.00;;;;;;10467100;27;84253;-47
2022/03/15 12:06:24;;;;;;;8.48;3.83;;;12.60;1.00;;;;;;10450439;27;84099;-46
2022/03/15 12:11:32;;;;;;;6.45;3.55;;;12.60;1.00;;;;;;10449296;28;86361;-46
2022/03/15 12:16:41;;;;;;;7.47;4.18;;;12.70;1.00;;;;;;10488722;27;86906;-46
2022/03/15 12:21:53;;;;;;;6.15;3.42;;;13.00;1.00;;;;;;10493855;27;84129;-45
2022/03/15 12:27:08;;;;;;;5.78;3.40;;;13.20;1.00;;;;;;10491962;27;85231;-44
2022/03/15 12:32:19;;;;;;;7.88;3.85;;;13.30;1.00;;;;;;10483870;27;85071;-44
2022/03/15 12:37:30;;;;;;;6.43;3.47;;;13.10;1.00;;;;;;10472439;27;85060;-48
2022/03/15 12:42:32;;;;;;;5.22;3.30;;;13.10;1.00;;;;;;10497913;27;84909;-46
2022/03/15 12:47:38;;;;;;;8.30;4.00;;;13.10;1.00;;;;;;10449817;27;84538;-45
2022/03/15 12:52:45;;;;;;;7.97;3.60;;;13.20;1.00;;;;;;10441812;27;85852;-46
2022/03/15 12:57:57;;;;;;;5.22;2.92;;;13.20;1.00;;;;;;10450326;27;84976;-48
2022/03/15 13:02:59;;;;;;;6.57;2.70;;;13.20;1.00;;;;;;10408097;28;84174;-46
2022/03/15 13:08:03;;;;;;;6.90;3.17;;;13.20;1.00;;;;;;10464461;27;84271;-46
2022/03/15 13:13:13;;;;;;;6.43;2.60;;;13.20;1.00;;;;;;10445662;27;85405;-46
2022/03/15 13:18:21;;;;;;;5.00;3.25;;;13.20;1.00;;;;;;10461404;27;85181;-45
2022/03/15 13:23:22;;;;;;;4.15;2.53;;;13.20;1.00;;;;;;10471644;27;84441;-46
2022/03/15 13:28:29;;;;;;;6.28;2.63;;;13.30;1.00;;;;;;10422123;27;84406;-47
2022/03/15 13:33:40;;;;;;;4.10;2.65;;;13.30;1.00;;;;;;10428349;27;84987;-48
2022/03/15 13:38:45;;;;;;;5.07;2.90;;;13.40;1.00;;;;;;10425658;27;84862;-44
2022/03/15 13:43:47;;;;;;;5.43;3.05;;;13.40;1.00;;;;;;10435204;27;84347;-46
2022/03/15 13:48:50;;;;;;;6.18;2.92;;;13.40;1.00;;;;;;10422900;28;85903;-44
2022/03/15 13:53:51;;;;;;;6.50;2.90;;;13.40;1.00;;;;;;10425828;27;86115;-48
2022/03/15 13:59:01;;;;;;;4.25;2.75;;;13.20;1.00;;;;;;10446881;27;85011;-46
2022/03/15 14:04:07;;;;;;;4.53;2.30;;;13.30;1.00;;;;;;10452223;27;85091;-46
2022/03/15 14:09:09;;;;;;;5.05;2.65;;;13.40;1.00;;;;;;10432464;27;85201;-44
2022/03/15 14:14:10;;;;;;;4.18;2.90;;;13.50;1.00;;;;;;10452043;27;85027;-46
2022/03/15 14:19:14;;;;;;;5.88;2.85;;;13.50;99.90;;;;;;10450545;27;84546;-48
2022/03/15 14:24:27;;;;;;;6.65;2.58;;;13.50;99.90;;;;;;10449334;27;85189;-47
2022/03/15 14:29:32;;;;;;;5.45;3.17;;;13.60;99.90;;;;;;10457351;27;84530;-45
2022/03/15 14:34:36;;;;;;;5.13;3.00;;;13.60;99.90;;;;;;10468403;27;84802;-47
2022/03/15 14:39:45;;;;;;;5.10;3.53;;;13.60;99.90;;;;;;10467047;27;84804;-46
2022/03/15 14:44:46;;;;;;;5.20;2.78;;;13.70;99.90;;;;;;10466254;27;84311;-51
2022/03/15 14:49:46;;;;;;;5.45;3.03;;;13.60;99.90;;;;;;10445962;27;84206;-51
2022/03/15 14:54:49;;;;;;;4.00;2.55;;;13.60;99.90;;;;;;10450655;27;84934;-48
2022/03/15 14:59:51;;;;;;;5.68;3.10;;;13.50;99.90;;;;;;10447615;28;84432;-46
2022/03/15 15:04:53;;;;;;;7.20;2.60;;;13.50;99.90;;;;;;10453777;27;84948;-46
2022/03/15 15:09:56;;;;;;;7.13;3.65;;;13.50;99.90;;;;;;10468501;27;84224;-48
2022/03/15 15:14:57;;;;;;;6.47;2.75;;;13.50;99.90;;;;;;10469160;27;84325;-47
2022/03/15 15:20:01;;;;;;;3.80;2.67;;;13.50;99.90;;;;;;10456702;27;85007;-47
2022/03/15 15:25:03;;;;;;;6.80;3.03;;;13.50;99.90;;;;;;10458457;27;85366;-44
2022/03/15 15:30:06;;;;;;;7.22;2.90;;;13.40;99.90;;;;;;10453276;27;84235;-46
2022/03/15 15:35:08;;;;;;;4.00;2.22;;;13.30;99.90;;;;;;10456893;27;85049;-45
2022/03/15 15:40:09;;;;;;;4.95;2.42;;;13.30;99.90;;;;;;10458742;27;84862;-46
2022/03/15 15:45:12;;;;;;;4.40;2.28;;;13.30;99.90;;;;;;10447813;27;84616;-45
2022/03/15 15:50:15;;;;;;;7.00;2.70;;;13.30;99.90;;;;;;10464480;27;84273;-47
2022/03/15 15:55:16;;;;;;;4.32;2.35;;;13.40;99.90;;;;;;10422652;27;85115;-45
2022/03/15 16:00:19;;;;;;;6.13;2.72;;;13.50;99.90;;;;;;10440952;27;85087;-45
2022/03/15 16:05:26;;;;;;;4.68;2.13;;;13.40;99.90;;;;;;10449027;27;84162;-44
2022/03/15 16:10:28;;;;;;;4.95;2.25;;;13.40;99.90;;;;;;10456041;27;85006;-46
2022/03/15 16:15:29;;;;;;;3.47;2.22;;;13.20;99.90;;;;;;10449880;27;85648;-43
2022/03/15 16:20:30;;;;;;;3.60;2.40;;;13.30;99.90;;;;;;10464690;27;86509;-43
2022/03/15 16:25:31;;;;;;;5.35;2.28;;;13.10;99.90;;;;;;10459269;27;84764;-47
2022/03/15 16:30:35;;;;;;;2.90;2.10;;;13.10;99.90;;;;;;10453169;27;84947;-48
2022/03/15 16:35:36;;;;;;;5.10;2.78;;;13.10;99.90;;;;;;10453653;27;84230;-55
2022/03/15 16:40:37;;;;;;;4.07;2.00;;;13.00;99.90;;;;;;10452874;28;84998;-53
2022/03/15 16:45:39;;;;;;;4.88;2.67;;;12.70;99.90;;;;;;10451588;28;84826;-53
2022/03/15 16:50:41;;;;;;;6.15;2.75;;;12.60;99.90;;;;;;10451980;27;84969;-53
2022/03/15 16:55:50;;;;;;;5.50;2.78;;;12.60;99.90;;;;;;10452055;27;84999;-56
2022/03/15 17:00:50;;;;;;;4.72;2.10;;;12.50;99.90;;;;;;10451590;28;84089;-56
2022/03/15 17:05:51;;;;;;;4.30;2.50;;;12.30;99.90;;;;;;10448688;27;84102;-54
2022/03/15 17:10:54;;;;;;;3.58;2.33;;;12.20;99.90;;;;;;10450432;27;85067;-55
2022/03/15 17:15:57;;;;;;;3.58;2.30;;;12.10;99.90;;;;;;10449297;27;84559;-54
2022/03/15 17:20:59;;;;;;;7.15;3.03;;;12.00;1.00;;;;;;10451273;27;84224;-57
2022/03/15 17:26:04;;;;;;;4.90;2.60;;;11.90;1.00;;;;;;10484404;27;85046;-56
2022/03/15 17:31:12;;;;;;;4.35;2.90;;;11.70;1.00;;;;;;10494557;27;84482;-56
2022/03/15 17:36:14;;;;;;;7.10;4.10;;;11.70;1.00;;;;;;10491041;27;87299;-55
2022/03/15 17:41:17;;;;;;;7.18;2.90;;;11.50;1.00;;;;;;10477512;27;84281;-45
2022/03/15 17:46:24;;;;;;;4.90;3.15;;;11.50;1.00;;;;;;10459963;27;84951;-46
2022/03/15 17:51:26;;;;;;;6.32;3.03;;;11.30;1.00;;;;;;10440554;27;85026;-47
2022/03/15 17:56:33;;;;;;;7.72;3.30;;;11.20;1.00;;;;;;10433272;27;86822;-47
2022/03/15 18:01:37;;;;;;;6.05;3.63;;;11.00;1.00;;;;;;10438988;27;84241;-47
2022/03/15 18:06:42;;;;;;;12.15;3.38;;;10.90;1.00;;;;;;10440631;27;84905;-46
2022/03/15 18:11:45;;;;;;;5.95;3.83;;;10.90;1.00;;;;;;10451782;27;85478;-45
2022/03/15 18:16:46;;;;;;;6.60;3.83;;;10.80;1.00;;;;;;10445757;27;84951;-46
2022/03/15 18:21:49;;;;;;;8.43;4.15;;;10.70;1.00;;;;;;10443213;27;85147;-44
2022/03/15 18:26:52;;;;;;;10.85;4.55;;;10.60;1.00;;;;;;10456469;27;84780;-45
2022/03/15 18:31:53;;;;;;;10.88;4.68;;;10.60;1.00;;;;;;10466242;27;84429;-46
2022/03/15 18:36:54;;;;;;;7.10;4.68;;;10.50;1.00;;;;;;10469627;27;84332;-45
2022/03/15 18:41:56;;;;;;;10.18;4.95;;;10.40;1.00;;;;;;10470437;27;85074;-49
2022/03/15 18:46:56;;;;;;;8.52;4.63;;;10.30;1.00;;;;;;10466782;27;84900;-45
2022/03/15 18:51:58;;;;;;;8.60;4.35;;;10.20;1.00;;;;;;10466008;27;85166;-45
2022/03/15 18:56:59;;;;;;;8.25;4.22;;;10.20;1.00;;;;;;10421792;27;84938;-47
2022/03/15 19:02:02;;;;;;;8.40;4.80;;;10.10;1.00;;;;;;10460253;27;85014;-51
2022/03/15 19:07:04;;;;;;;9.48;4.78;;;10.10;1.00;;;;;;10464506;27;85021;-45
2022/03/15 19:12:05;;;;;;;14.02;5.20;;;10.00;1.00;;;;;;10489947;27;85031;-51
2022/03/15 19:17:06;;;;;;;8.68;4.32;;;10.00;1.00;;;;;;10489919;27;85019;-46
2022/03/15 19:22:09;;;;;;;10.00;4.90;;;10.00;1.00;;;;;;10490242;27;84915;-45
2022/03/15 19:27:10;;;;;;;12.05;5.75;;;9.90;1.00;;;;;;10487945;27;84867;-44
2022/03/15 19:32:11;;;;;;;10.70;5.03;;;9.80;1.00;;;;;;10489370;27;85122;-44
2022/03/15 19:37:13;;;;;;;10.15;4.90;;;9.70;1.00;;;;;;10445045;27;86494;-44
2022/03/15 19:42:14;;;;;;;7.53;4.63;;;9.70;1.00;;;;;;10447841;27;85404;-47
2022/03/15 19:47:15;;;;;;;7.57;4.82;;;9.60;1.00;;;;;;10446917;28;84752;-48
2022/03/15 19:52:16;;;;;;;10.38;4.78;;;9.50;1.00;;;;;;10446387;28;86112;-46
2022/03/15 19:57:19;;;;;;;12.32;4.72;;;9.30;1.00;;;;;;10455610;27;84375;-45
2022/03/15 20:02:21;;;;;;;10.75;4.85;;;9.10;1.00;;;;;;10452979;27;84926;-43
2022/03/15 20:07:31;;;;;;;10.52;5.68;;;9.00;1.00;;;;;;10442290;27;86726;-48
2022/03/15 20:12:35;;;;;;;14.18;5.80;;;8.90;1.00;;;;;;10440499;27;83991;-50
2022/03/15 20:17:43;;;;;;;12.98;5.85;;;8.90;1.00;;;;;;10447272;27;84943;-47
2022/03/15 20:22:44;;;;;;;12.73;5.97;;;8.80;1.00;;;;;;10466323;27;85012;-45
2022/03/15 20:27:45;;;;;;;9.50;5.05;;;8.70;1.00;;;;;;10460535;27;84492;-44
2022/03/15 20:32:46;;;;;;;10.30;5.57;;;8.70;1.00;;;;;;10478731;27;84742;-45
2022/03/15 20:37:46;;;;;;;10.40;5.85;;;8.60;1.00;;;;;;10484194;27;85034;-45
2022/03/15 20:48:08;;;;;;;11.70;6.32;;;8.40;1.00;;;;;;10439532;27;84804;-48
2022/03/15 20:53:08;;;;;;;15.68;8.00;;;8.30;1.00;;;;;;10422045;22;84675;-53
2022/03/15 20:58:16;;;;;;;15.60;7.68;;;8.30;1.00;;;;;;10374391;28;84878;-52
2022/03/15 21:03:25;;;;;;;11.10;6.43;;;8.20;1.00;;;;;;10340513;28;86468;-48
2022/03/15 21:08:35;;;;;;;11.98;6.72;;;8.10;1.00;;;;;;10328969;28;85086;-55
2022/03/15 21:13:37;;;;;;;11.77;6.25;;;8.10;1.00;;;;;;10327386;28;85032;-51
2022/03/15 21:18:39;;;;;;;12.45;5.57;;;8.10;1.00;;;;;;10332056;28;84497;-54
2022/03/15 21:23:44;;;;;;;11.68;5.85;;;8.10;1.00;;;;;;10327863;28;85408;-49
2022/03/15 21:28:44;;;;;;;14.65;5.38;;;8.00;5.20;;;;;;10323551;28;85319;-48
2022/03/15 21:33:45;;;;;;;10.90;6.07;;;8.00;2.90;;;;;;10329176;28;84214;-51
2022/03/15 21:38:46;;;;;;;10.55;5.60;;;7.90;1.00;;;;;;10329774;28;84115;-49
2022/03/15 21:43:47;;;;;;;15.30;6.45;;;7.90;41.20;;;;;;10328684;28;85320;-49
2022/03/15 21:48:51;;;;;;;14.32;6.22;;;7.80;56.70;;;;;;10352332;28;84141;-47
2022/03/15 21:53:53;;;;;;;13.18;6.10;;;7.80;86.00;;;;;;10362359;28;84734;-52
2022/03/15 21:58:54;;;;;;;12.55;5.85;;;7.80;99.90;;;;;;10346274;28;84207;-50
2022/03/15 22:03:55;;;;;;;11.07;5.93;;;7.70;99.90;;;;;;10355391;28;85263;-50
2022/03/15 22:09:01;;;;;;;12.23;6.13;;;7.60;99.90;;;;;;10356172;28;84844;-50
2022/03/15 22:14:02;;;;;;;11.18;6.40;;;7.60;99.90;;;;;;10320047;28;85393;-51
2022/03/15 22:19:02;;;;;;;11.38;6.53;;;7.50;99.90;;;;;;10333413;28;84896;-49
2022/03/15 22:24:07;;;;;;;13.93;6.72;;;7.50;99.90;;;;;;10332644;28;85022;-46
2022/03/15 22:29:08;;;;;;;15.98;7.30;;;7.40;99.90;;;;;;10349797;28;84927;-50
2022/03/15 23:16:34;;;;;;;16.08;6.90;;;6.80;99.90;;;;;;10332757;28;84042;-46
2022/03/15 23:32:22;;;;;;;16.80;8.30;;;6.60;99.90;;;;;;10328582;28;84827;-47
2022/03/15 23:37:22;;;;;;;15.05;8.25;;;6.60;99.90;;;;;;10343521;28;84228;-47
2022/03/15 23:42:23;;;;;;;12.35;7.18;;;6.50;99.90;;;;;;10325915;28;84119;-47
2022/03/15 23:47:24;;;;;;;19.63;7.22;;;6.40;99.90;;;;;;10325120;28;84080;-51
2022/03/15 23:52:25;;;;;;;12.75;6.97;;;6.30;99.90;;;;;;10325756;28;84788;-49
2022/03/15 23:57:26;;;;;;;14.43;7.68;;;6.30;99.90;;;;;;10324033;28;86668;-48
